Time;durP1;ratioP1;P1;durP2;ratioP2;P2;SDS_P1;SDS_P2;PMS_P1;PMS_P2;Temp;Humidity;BMP_temperature;BMP_pressure;BME280_temperature;BME280_humidity;BME280_pressure;Samples;Min_cycle;Max_cycle;Signal;HPM_P1;HPM_P2
2023/12/15 09:16:10;;;;;;;16.07;4.87;;;9.40;99.90;;;;;;2696867;23;20250;-69
2023/12/15 09:18:37;;;;;;;10.77;4.40;;;9.50;99.90;;;;;;4889782;29;20225;-71
2023/12/15 09:21:05;;;;;;;10.47;3.37;;;9.50;99.90;;;;;;4868775;29;20324;-70
2023/12/15 09:23:31;;;;;;;10.03;3.40;;;9.60;99.90;;;;;;4897959;29;20245;-71
2023/12/15 09:25:58;;;;;;;7.27;3.57;;;9.60;99.90;;;;;;4880685;29;20253;-74
2023/12/15 09:28:25;;;;;;;9.23;4.10;;;9.60;99.90;;;;;;4880427;29;20290;-72
2023/12/15 09:30:52;;;;;;;9.73;4.10;;;9.60;99.90;;;;;;4880713;29;20246;-70
2023/12/15 09:33:21;;;;;;;7.30;3.33;;;9.60;99.90;;;;;;4884322;29;20222;-73
2023/12/15 09:35:53;;;;;;;9.33;3.43;;;9.60;99.90;;;;;;4880994;29;20246;-73
2023/12/15 09:38:20;;;;;;;6.00;2.90;;;9.70;99.90;;;;;;4880457;29;20211;-73
2023/12/15 09:40:47;;;;;;;9.07;3.40;;;9.70;99.90;;;;;;4880207;29;20333;-73
2023/12/15 09:43:14;;;;;;;7.87;3.40;;;9.90;99.90;;;;;;4879980;29;20394;-73
2023/12/15 09:45:41;;;;;;;9.67;3.20;;;10.10;99.90;;;;;;4874173;29;20722;-72
2023/12/15 09:48:10;;;;;;;9.10;3.80;;;10.10;99.90;;;;;;4868133;29;20299;-72
2023/12/15 09:50:41;;;;;;;10.60;3.23;;;10.30;99.90;;;;;;4877430;29;20758;-71
2023/12/15 09:53:08;;;;;;;7.87;2.67;;;10.30;99.90;;;;;;4880149;29;20655;-73
2023/12/15 09:55:36;;;;;;;12.47;4.57;;;10.30;99.90;;;;;;4880133;29;20211;-72
2023/12/15 09:58:03;;;;;;;10.63;3.40;;;10.40;99.90;;;;;;4880264;29;20211;-72
2023/12/15 10:00:31;;;;;;;6.73;2.83;;;10.50;99.90;;;;;;4880015;29;20243;-72
2023/12/15 10:02:59;;;;;;;12.80;3.50;;;10.50;99.90;;;;;;4879731;29;20327;-73
2023/12/15 10:05:27;;;;;;;10.03;3.40;;;10.60;99.90;;;;;;4880038;29;20207;-70
2023/12/15 10:07:56;;;;;;;12.53;3.40;;;10.60;99.90;;;;;;4879788;29;20211;-71
2023/12/15 10:10:26;;;;;;;6.93;3.10;;;10.70;99.90;;;;;;4887860;29;20206;-71
2023/12/15 10:12:55;;;;;;;13.80;4.03;;;10.70;99.90;;;;;;4882681;29;20211;-74
2023/12/15 10:15:23;;;;;;;12.43;4.30;;;10.80;99.90;;;;;;4879710;29;20221;-73
2023/12/15 10:17:50;;;;;;;10.33;4.00;;;11.00;99.90;;;;;;4878988;29;20258;-72
2023/12/15 10:20:17;;;;;;;8.83;4.30;;;11.10;99.90;;;;;;4878471;29;20333;-71
2023/12/15 10:22:44;;;;;;;8.70;4.73;;;11.20;99.90;;;;;;4879335;29;20208;-73
2023/12/15 10:25:22;;;;;;;8.73;4.00;;;11.10;99.90;;;;;;4879928;29;20215;-72
2023/12/15 10:27:49;;;;;;;10.70;2.90;;;11.00;99.90;;;;;;4879722;29;20243;-73
2023/12/15 10:30:17;;;;;;;7.30;2.93;;;11.00;99.90;;;;;;4879410;29;20682;-72
2023/12/15 10:32:45;;;;;;;5.47;2.33;;;11.00;99.90;;;;;;4882839;29;20206;-73
2023/12/15 10:35:13;;;;;;;8.43;2.47;;;11.10;99.90;;;;;;4898191;29;20666;-74
2023/12/15 10:37:42;;;;;;;9.20;2.50;;;11.20;99.90;;;;;;4897860;29;20214;-74
2023/12/15 10:40:10;;;;;;;7.40;2.00;;;11.30;99.90;;;;;;4897627;29;20262;-72
2023/12/15 10:42:41;;;;;;;7.67;1.97;;;11.30;99.90;;;;;;4897924;29;20210;-73
2023/12/15 10:45:10;;;;;;;12.10;2.30;;;11.40;99.90;;;;;;4896668;29;20214;-71
2023/12/15 10:47:36;;;;;;;7.93;1.50;;;11.30;99.90;;;;;;4879637;29;20217;-76
2023/12/15 10:50:07;;;;;;;5.03;1.77;;;11.40;99.90;;;;;;4879452;29;20223;-73
2023/12/15 10:52:40;;;;;;;8.87;1.60;;;11.40;99.90;;;;;;4881359;29;20238;-73
2023/12/15 10:55:08;;;;;;;9.53;2.03;;;11.40;99.90;;;;;;4897860;29;20301;-72
2023/12/15 10:57:34;;;;;;;4.70;1.37;;;11.20;99.90;;;;;;4885136;29;20242;-72
2023/12/15 11:00:05;;;;;;;5.33;1.37;;;11.30;99.90;;;;;;4878053;29;20273;-72
2023/12/15 11:02:36;;;;;;;6.50;1.70;;;11.40;99.90;;;;;;4873131;29;20214;-73
2023/12/15 11:05:04;;;;;;;8.10;1.70;;;11.20;99.90;;;;;;4864774;29;20200;-75
2023/12/15 11:07:31;;;;;;;4.37;1.73;;;11.40;99.90;;;;;;4872891;29;20207;-76
2023/12/15 11:09:59;;;;;;;6.67;1.53;;;11.40;99.90;;;;;;4876132;29;20203;-73
2023/12/15 11:12:31;;;;;;;6.53;1.83;;;11.50;99.90;;;;;;4878664;29;20303;-73
2023/12/15 11:15:02;;;;;;;5.60;1.87;;;11.60;99.90;;;;;;4870941;29;20234;-72
2023/12/15 11:17:31;;;;;;;6.33;1.57;;;11.70;99.90;;;;;;4870031;29;20216;-77
2023/12/15 11:20:06;;;;;;;5.70;1.23;;;11.70;99.90;;;;;;4868508;29;20335;-73
2023/12/15 11:22:41;;;;;;;7.23;1.20;;;11.70;99.90;;;;;;4870160;29;20574;-78
2023/12/15 11:25:09;;;;;;;3.67;1.00;;;11.80;99.90;;;;;;4865020;29;20571;-74
2023/12/15 11:28:01;;;;;;;3.17;1.13;;;11.70;99.90;;;;;;4872018;29;20246;-76
2023/12/15 11:30:34;;;;;;;8.33;1.57;;;11.80;99.90;;;;;;4878110;29;20674;-75
2023/12/15 11:33:39;;;;;;;5.83;1.23;;;11.80;99.90;;;;;;4868806;29;20241;-75
2023/12/15 11:36:08;;;;;;;4.70;1.13;;;11.80;99.90;;;;;;4859380;29;20212;-76
2023/12/15 11:38:36;;;;;;;8.57;1.23;;;11.80;99.90;;;;;;4878466;29;20294;-75
2023/12/15 11:41:03;;;;;;;6.60;1.10;;;11.80;99.90;;;;;;4880022;29;20267;-75
2023/12/15 11:43:32;;;;;;;7.90;1.23;;;11.90;99.90;;;;;;4880159;29;20222;-76
2023/12/15 11:45:59;;;;;;;3.97;1.10;;;11.90;99.90;;;;;;4871806;29;20239;-77
2023/12/15 11:48:27;;;;;;;8.50;1.80;;;12.00;99.90;;;;;;4870057;29;20239;-75
2023/12/15 11:50:55;;;;;;;6.50;1.20;;;12.10;99.90;;;;;;4870076;29;20203;-76
2023/12/15 11:53:22;;;;;;;4.57;1.20;;;11.90;99.90;;;;;;4868884;29;20553;-77
2023/12/15 11:55:50;;;;;;;5.90;0.90;;;11.90;99.90;;;;;;4873150;29;20218;-77
2023/12/15 11:58:18;;;;;;;3.57;1.07;;;12.00;99.90;;;;;;4874963;29;20291;-76
2023/12/15 12:00:45;;;;;;;7.87;1.40;;;11.90;99.90;;;;;;4868164;29;20711;-74
2023/12/15 12:03:13;;;;;;;4.60;1.10;;;11.80;99.90;;;;;;4867676;29;20227;-73
2023/12/15 12:05:42;;;;;;;3.47;1.00;;;11.80;99.90;;;;;;4870435;29;20211;-74
2023/12/15 12:08:10;;;;;;;4.00;1.00;;;12.00;99.90;;;;;;4878396;29;20263;-75
2023/12/15 12:10:40;;;;;;;3.83;1.67;;;12.10;99.90;;;;;;4880117;29;20207;-74
2023/12/15 12:13:07;;;;;;;4.87;1.13;;;12.00;99.90;;;;;;4881565;29;20914;-73
2023/12/15 12:15:48;;;;;;;4.00;0.93;;;12.10;99.90;;;;;;4881980;29;20566;-76
2023/12/15 12:18:15;;;;;;;3.20;1.00;;;12.30;99.90;;;;;;4881298;29;20215;-75
2023/12/15 12:20:44;;;;;;;5.10;1.17;;;12.10;99.90;;;;;;4881966;29;20281;-74
2023/12/15 12:23:12;;;;;;;8.37;1.60;;;12.10;99.90;;;;;;4881749;29;20301;-75
2023/12/15 12:25:44;;;;;;;7.63;1.77;;;12.00;99.90;;;;;;4881494;29;20274;-76
2023/12/15 12:28:12;;;;;;;5.00;1.53;;;12.00;99.90;;;;;;4881791;29;20213;-76
2023/12/15 12:30:39;;;;;;;2.70;1.20;;;11.90;99.90;;;;;;4881887;29;20301;-75
2023/12/15 12:33:06;;;;;;;4.43;1.00;;;11.80;99.90;;;;;;4881907;29;20299;-75
2023/12/15 12:35:33;;;;;;;3.57;1.10;;;11.90;99.90;;;;;;4881880;29;20211;-76
2023/12/15 12:38:02;;;;;;;3.93;1.20;;;11.90;99.90;;;;;;4881886;29;20212;-76
2023/12/15 12:40:29;;;;;;;4.40;1.00;;;11.90;99.90;;;;;;4881514;29;20239;-75
2023/12/15 12:42:58;;;;;;;7.37;1.37;;;12.00;99.90;;;;;;4881730;29;20239;-76
2023/12/15 12:45:25;;;;;;;7.00;1.63;;;12.10;99.90;;;;;;4881466;29;20340;-75
2023/12/15 12:47:52;;;;;;;5.27;1.20;;;12.20;99.90;;;;;;4881699;29;20218;-75
2023/12/15 12:50:19;;;;;;;3.87;1.23;;;12.20;99.90;;;;;;4881972;29;20226;-75
2023/12/15 12:52:46;;;;;;;4.60;1.03;;;12.30;99.90;;;;;;4881168;29;20242;-75
2023/12/15 12:55:14;;;;;;;4.57;1.23;;;12.20;99.90;;;;;;4881254;29;20258;-76
2023/12/15 12:57:41;;;;;;;5.63;1.00;;;12.30;99.90;;;;;;4881526;29;20297;-75
2023/12/15 13:00:09;;;;;;;3.93;1.30;;;12.00;99.90;;;;;;4881289;29;20288;-77
2023/12/15 13:02:37;;;;;;;7.70;1.17;;;11.90;99.90;;;;;;4881806;29;20219;-76
2023/12/15 13:05:05;;;;;;;3.87;1.10;;;12.10;99.90;;;;;;4886616;29;20207;-74
2023/12/15 13:07:35;;;;;;;5.33;1.50;;;12.10;99.90;;;;;;4887679;29;20238;-75
2023/12/15 13:10:03;;;;;;;4.63;1.20;;;11.90;99.90;;;;;;4881647;29;20207;-74
2023/12/15 13:12:31;;;;;;;5.77;1.10;;;11.80;99.90;;;;;;4880806;29;20306;-76
2023/12/15 13:14:58;;;;;;;2.40;0.97;;;11.80;99.90;;;;;;4880094;29;20630;-75
2023/12/15 13:17:26;;;;;;;3.57;1.30;;;11.90;99.90;;;;;;4880697;29;20219;-76
2023/12/15 13:19:53;;;;;;;5.60;1.53;;;11.90;99.90;;;;;;4880450;29;20287;-74
2023/12/15 13:22:26;;;;;;;11.27;1.90;;;11.90;99.90;;;;;;4880416;29;20263;-76
2023/12/15 13:24:53;;;;;;;8.33;1.80;;;11.80;99.90;;;;;;4880755;29;20238;-75
2023/12/15 13:27:21;;;;;;;10.77;2.07;;;11.90;99.90;;;;;;4880789;29;20310;-74
2023/12/15 13:29:50;;;;;;;3.87;1.70;;;11.90;99.90;;;;;;4880945;29;20671;-76
2023/12/15 13:32:18;;;;;;;4.60;2.03;;;11.80;99.90;;;;;;4880798;29;20215;-76
2023/12/15 13:34:46;;;;;;;6.30;1.87;;;11.80;99.90;;;;;;4881108;29;20235;-76
2023/12/15 13:37:14;;;;;;;7.10;1.80;;;11.80;99.90;;;;;;4880658;29;20298;-76
2023/12/15 13:39:41;;;;;;;8.27;1.60;;;11.80;99.90;;;;;;4880539;29;20207;-75
2023/12/15 13:42:08;;;;;;;5.47;1.87;;;11.90;99.90;;;;;;4880375;29;20686;-76
2023/12/15 13:44:36;;;;;;;4.13;1.03;;;11.90;99.90;;;;;;4880631;29;20302;-77
2023/12/15 13:47:05;;;;;;;6.27;1.70;;;11.80;99.90;;;;;;4881170;29;20207;-76
2023/12/15 13:49:32;;;;;;;7.80;1.33;;;11.60;99.90;;;;;;4880744;29;20306;-77
2023/12/15 13:52:00;;;;;;;5.30;1.40;;;11.60;99.90;;;;;;4880901;29;20211;-76
2023/12/15 13:54:27;;;;;;;4.83;1.27;;;11.50;99.90;;;;;;4880349;29;20235;-76
2023/12/15 13:56:56;;;;;;;7.47;1.40;;;11.30;99.90;;;;;;4880575;29;20207;-77
2023/12/15 13:59:23;;;;;;;6.97;1.40;;;11.30;99.90;;;;;;4880288;29;20215;-75
2023/12/15 14:01:50;;;;;;;6.63;1.63;;;11.10;99.90;;;;;;4880320;29;20702;-76
2023/12/15 14:04:19;;;;;;;5.63;1.27;;;11.10;99.90;;;;;;4880207;29;20639;-76
2023/12/15 14:06:49;;;;;;;5.70;1.50;;;11.00;99.90;;;;;;4879838;29;20251;-76
2023/12/15 14:09:17;;;;;;;7.00;2.00;;;11.00;99.90;;;;;;4880320;29;20211;-76
2023/12/15 14:11:44;;;;;;;4.27;1.40;;;10.90;99.90;;;;;;4880278;29;20215;-76
2023/12/15 14:14:11;;;;;;;8.20;1.30;;;10.80;99.90;;;;;;4879543;29;20242;-76
2023/12/15 14:16:39;;;;;;;8.73;1.70;;;10.90;99.90;;;;;;4880366;29;20564;-76
2023/12/15 14:19:08;;;;;;;2.87;1.20;;;11.00;99.90;;;;;;4880178;29;20263;-77
2023/12/15 14:21:36;;;;;;;4.63;1.30;;;11.00;99.90;;;;;;4879981;29;20278;-77
2023/12/15 14:24:03;;;;;;;8.43;1.60;;;10.90;99.90;;;;;;4879477;29;20271;-77
2023/12/15 14:26:30;;;;;;;6.70;1.37;;;10.90;99.90;;;;;;4879709;29;20582;-76
2023/12/15 14:28:57;;;;;;;4.77;1.33;;;10.90;99.90;;;;;;4879785;29;20544;-75
2023/12/15 14:31:24;;;;;;;4.20;1.37;;;10.90;99.90;;;;;;4879897;29;20219;-76
2023/12/15 14:33:52;;;;;;;4.33;0.70;;;10.90;99.90;;;;;;4879491;29;20286;-77
2023/12/15 14:36:19;;;;;;;2.67;1.00;;;10.90;99.90;;;;;;4879599;29;20211;-75
2023/12/15 14:38:47;;;;;;;5.50;0.93;;;10.90;99.90;;;;;;4879865;29;20247;-76
2023/12/15 14:41:14;;;;;;;3.40;1.10;;;10.90;99.90;;;;;;4879896;29;20235;-76
2023/12/15 14:43:41;;;;;;;7.80;1.30;;;11.00;99.90;;;;;;4879723;29;20231;-73
2023/12/15 14:46:08;;;;;;;8.17;1.43;;;10.90;99.90;;;;;;4879504;29;20675;-76
2023/12/15 14:48:36;;;;;;;6.07;1.10;;;10.80;99.90;;;;;;4879419;29;20226;-75
2023/12/15 14:51:03;;;;;;;2.87;1.10;;;10.80;99.90;;;;;;4879433;29;20211;-76
2023/12/15 14:53:30;;;;;;;5.23;1.40;;;10.80;99.90;;;;;;4879207;29;20274;-75
2023/12/15 14:55:58;;;;;;;5.07;1.10;;;10.70;99.90;;;;;;4879247;29;20242;-74
2023/12/15 14:58:25;;;;;;;3.53;1.10;;;10.80;99.90;;;;;;4879182;29;20215;-76
2023/12/15 15:00:52;;;;;;;4.50;0.97;;;10.70;99.90;;;;;;4878925;29;20301;-73
2023/12/15 15:03:19;;;;;;;3.70;1.40;;;10.80;99.90;;;;;;4879050;29;20726;-75
2023/12/15 15:05:46;;;;;;;5.67;1.40;;;10.80;99.90;;;;;;4879105;29;20670;-75
2023/12/15 15:08:13;;;;;;;5.87;1.30;;;10.90;99.90;;;;;;4877691;29;20670;-75
2023/12/15 15:10:40;;;;;;;6.20;1.67;;;10.80;99.90;;;;;;4877971;29;20306;-75
2023/12/15 15:13:09;;;;;;;8.03;1.27;;;10.70;99.90;;;;;;4879540;29;20568;-72
2023/12/15 15:15:36;;;;;;;4.47;1.03;;;10.60;99.90;;;;;;4878745;29;20628;-76
2023/12/15 15:18:03;;;;;;;3.23;1.33;;;10.60;99.90;;;;;;4878248;29;20215;-75
2023/12/15 15:20:29;;;;;;;6.37;2.33;;;10.60;99.90;;;;;;4878319;29;20310;-74
2023/12/15 15:22:57;;;;;;;3.40;0.80;;;10.70;99.90;;;;;;4878290;29;20631;-75
2023/12/15 15:25:24;;;;;;;4.33;1.20;;;10.70;99.90;;;;;;4878528;29;20215;-76
2023/12/15 15:27:51;;;;;;;3.33;1.10;;;10.80;99.90;;;;;;4878037;29;20567;-76
2023/12/15 15:30:19;;;;;;;3.67;1.60;;;10.90;99.90;;;;;;4878332;29;20638;-75
2023/12/15 15:32:52;;;;;;;5.30;1.80;;;10.90;99.90;;;;;;4877787;29;20215;-74
2023/12/15 15:35:18;;;;;;;6.03;1.20;;;10.90;99.90;;;;;;4877897;29;20290;-76
2023/12/15 15:37:46;;;;;;;3.53;1.10;;;10.90;99.90;;;;;;4877941;29;20218;-75
2023/12/15 15:40:13;;;;;;;3.73;1.70;;;10.80;99.90;;;;;;4877949;29;20559;-75
2023/12/15 15:42:40;;;;;;;5.40;1.30;;;10.90;99.90;;;;;;4878224;29;20297;-76
2023/12/15 15:45:08;;;;;;;4.47;1.13;;;10.90;99.90;;;;;;4879471;29;20215;-76
2023/12/15 15:47:37;;;;;;;1.90;0.90;;;10.80;99.90;;;;;;4881106;29;20207;-76
2023/12/15 15:50:06;;;;;;;7.43;2.10;;;10.80;99.90;;;;;;4881531;29;20218;-72
2023/12/15 15:52:33;;;;;;;5.37;1.43;;;10.60;99.90;;;;;;4881269;29;20222;-76
2023/12/15 15:55:00;;;;;;;4.33;1.30;;;10.70;99.90;;;;;;4881447;29;20264;-74
2023/12/15 15:57:27;;;;;;;4.00;1.30;;;10.60;99.90;;;;;;4881199;29;20218;-76
2023/12/15 15:59:55;;;;;;;6.43;1.53;;;10.60;99.90;;;;;;4881060;29;20303;-73
2023/12/15 16:02:22;;;;;;;6.67;1.53;;;10.60;99.90;;;;;;4880838;29;20242;-73
2023/12/15 16:04:52;;;;;;;3.33;1.27;;;10.70;99.90;;;;;;4880757;29;20249;-74
2023/12/15 16:07:19;;;;;;;6.27;1.27;;;10.70;99.90;;;;;;4880806;29;20234;-74
2023/12/15 16:09:46;;;;;;;4.53;1.50;;;10.80;99.90;;;;;;4880589;29;20212;-74
2023/12/15 16:12:13;;;;;;;3.43;1.80;;;10.80;99.90;;;;;;4880534;29;20218;-74
2023/12/15 16:14:41;;;;;;;7.10;2.07;;;10.80;99.90;;;;;;4880678;29;20294;-75
2023/12/15 16:17:09;;;;;;;3.80;1.57;;;10.70;99.90;;;;;;4842196;29;1161910;-74
2023/12/15 16:19:35;;;;;;;7.67;1.70;;;10.60;99.90;;;;;;4881610;29;20577;-75
2023/12/15 16:22:04;;;;;;;3.70;1.53;;;10.60;99.90;;;;;;4881377;29;20250;-73
2023/12/15 16:24:31;;;;;;;7.67;1.77;;;10.60;99.90;;;;;;4881574;29;20258;-73
2023/12/15 16:26:58;;;;;;;5.13;1.53;;;10.60;99.90;;;;;;4881714;29;20253;-74
2023/12/15 16:29:25;;;;;;;5.50;1.60;;;10.60;99.90;;;;;;4877069;29;20211;-75
2023/12/15 16:31:53;;;;;;;7.77;2.07;;;10.50;99.90;;;;;;4882387;29;20218;-78
2023/12/15 16:34:20;;;;;;;6.50;2.20;;;10.60;99.90;;;;;;4880586;29;20230;-76
2023/12/15 16:36:47;;;;;;;5.83;2.40;;;10.60;99.90;;;;;;4897588;29;20207;-76
2023/12/15 16:39:15;;;;;;;8.43;2.90;;;10.60;99.90;;;;;;4893934;29;20215;-76
2023/12/15 16:41:42;;;;;;;6.73;2.40;;;10.60;99.90;;;;;;4881522;29;20733;-75
2023/12/15 16:44:09;;;;;;;6.60;2.43;;;10.60;99.90;;;;;;4880885;29;20290;-76
2023/12/15 16:46:36;;;;;;;6.57;2.20;;;10.70;99.90;;;;;;4871918;29;20215;-76
2023/12/15 16:49:03;;;;;;;4.73;2.30;;;10.70;99.90;;;;;;4878243;29;20730;-77
2023/12/15 16:51:35;;;;;;;6.47;2.47;;;10.70;99.90;;;;;;4872877;29;20273;-76
2023/12/15 16:54:02;;;;;;;6.63;2.43;;;10.70;99.90;;;;;;4871754;29;20227;-76
2023/12/15 16:56:31;;;;;;;9.40;2.13;;;10.60;99.90;;;;;;4868523;29;20239;-76
2023/12/15 16:58:58;;;;;;;4.63;2.40;;;10.60;99.90;;;;;;4873426;29;20208;-76
2023/12/15 17:01:26;;;;;;;6.10;2.30;;;10.60;99.90;;;;;;4879954;29;20250;-76
2023/12/15 17:03:53;;;;;;;5.93;2.20;;;10.60;99.90;;;;;;4881091;29;20238;-76
2023/12/15 17:06:20;;;;;;;5.70;2.30;;;10.60;99.90;;;;;;4880841;29;20222;-77
2023/12/15 17:08:47;;;;;;;6.83;2.87;;;10.60;99.90;;;;;;4880309;29;20674;-76
2023/12/15 17:11:15;;;;;;;5.17;2.60;;;10.60;99.90;;;;;;4880859;29;20257;-77
2023/12/15 17:13:43;;;;;;;17.20;2.70;;;10.60;99.90;;;;;;4881168;29;20269;-77
2023/12/15 17:16:14;;;;;;;8.07;2.40;;;10.50;99.90;;;;;;4880876;29;20211;-77
2023/12/15 17:18:46;;;;;;;6.27;2.00;;;10.40;99.90;;;;;;4880202;29;20215;-76
2023/12/15 17:21:13;;;;;;;5.57;2.77;;;10.40;99.90;;;;;;4879551;29;20263;-77
2023/12/15 17:23:41;;;;;;;6.43;2.53;;;10.40;99.90;;;;;;4882113;29;20275;-76
2023/12/15 17:26:09;;;;;;;10.13;3.07;;;10.40;99.90;;;;;;4890626;29;20207;-77
2023/12/15 17:28:36;;;;;;;7.00;2.60;;;10.40;99.90;;;;;;4880872;29;22502;-77
2023/12/15 17:31:06;;;;;;;8.17;3.00;;;10.50;99.90;;;;;;4880653;29;20302;-76
2023/12/15 17:33:33;;;;;;;7.80;2.53;;;10.50;99.90;;;;;;4880320;29;20266;-76
2023/12/15 17:36:00;;;;;;;7.83;2.70;;;10.50;99.90;;;;;;4880311;29;20222;-76
2023/12/15 17:38:27;;;;;;;8.20;3.57;;;10.50;99.90;;;;;;4880132;29;20731;-77
2023/12/15 17:40:54;;;;;;;7.67;2.93;;;10.60;99.90;;;;;;4880615;29;20242;-77
2023/12/15 17:43:23;;;;;;;9.20;4.00;;;10.60;99.90;;;;;;4880048;29;20602;-78
2023/12/15 17:45:50;;;;;;;10.27;3.90;;;10.60;99.90;;;;;;4880348;29;20211;-77
2023/12/15 17:48:20;;;;;;;14.17;4.80;;;10.60;99.90;;;;;;4879872;29;20203;-75
2023/12/15 17:50:47;;;;;;;13.77;4.83;;;10.60;99.90;;;;;;4879621;29;20229;-75
2023/12/15 17:53:14;;;;;;;8.13;3.80;;;10.60;99.90;;;;;;4880122;29;20223;-76
2023/12/15 17:55:41;;;;;;;7.97;2.97;;;10.50;99.90;;;;;;4880288;29;20271;-76
2023/12/15 17:58:08;;;;;;;7.50;2.60;;;10.50;99.90;;;;;;4879465;29;20211;-77
2023/12/15 18:00:35;;;;;;;11.37;3.30;;;10.50;99.90;;;;;;4879995;29;20219;-77
2023/12/15 18:03:02;;;;;;;8.10;2.90;;;10.50;99.90;;;;;;4878999;29;20839;-74
2023/12/15 18:05:31;;;;;;;7.93;3.23;;;10.50;99.90;;;;;;4880119;29;20238;-76
2023/12/15 18:07:59;;;;;;;12.90;3.87;;;10.50;99.90;;;;;;4879004;29;20265;-77
2023/12/15 18:10:26;;;;;;;9.40;3.20;;;10.50;99.90;;;;;;4879983;29;20243;-77
2023/12/15 18:12:54;;;;;;;9.53;3.73;;;10.50;99.90;;;;;;4878822;29;20295;-76
2023/12/15 18:15:21;;;;;;;9.00;3.87;;;10.60;99.90;;;;;;4880015;29;20215;-76
2023/12/15 18:17:48;;;;;;;15.20;4.10;;;10.40;99.90;;;;;;4879206;29;20218;-76
2023/12/15 18:20:17;;;;;;;8.87;3.43;;;10.40;99.90;;;;;;4879543;29;20219;-75
2023/12/15 18:22:45;;;;;;;10.70;3.47;;;10.40;99.90;;;;;;4879471;29;20321;-77
2023/12/15 18:25:15;;;;;;;6.70;3.10;;;10.40;99.90;;;;;;4875207;29;20219;-76
2023/12/15 18:27:42;;;;;;;14.30;4.70;;;10.30;99.90;;;;;;4878395;29;20215;-76
2023/12/15 18:30:09;;;;;;;9.97;3.97;;;10.30;99.90;;;;;;4878176;29;20222;-77
2023/12/15 18:32:36;;;;;;;14.40;4.27;;;10.20;99.90;;;;;;4878847;29;20211;-76
2023/12/15 18:35:03;;;;;;;13.40;4.67;;;10.20;99.90;;;;;;4878326;29;20678;-76
2023/12/15 18:37:30;;;;;;;9.33;3.93;;;10.30;99.90;;;;;;4879182;29;20206;-73
2023/12/15 18:39:58;;;;;;;10.60;4.17;;;10.20;99.90;;;;;;4877817;29;20242;-77
2023/12/15 18:42:26;;;;;;;13.30;5.10;;;10.30;99.90;;;;;;4878987;29;20227;-74
2023/12/15 18:44:52;;;;;;;16.97;5.63;;;10.20;99.90;;;;;;4878286;29;20322;-73
2023/12/15 18:47:20;;;;;;;11.03;4.80;;;10.20;99.90;;;;;;4878575;29;20261;-73
2023/12/15 18:49:46;;;;;;;12.30;4.43;;;10.30;99.90;;;;;;4878870;29;20302;-73
2023/12/15 18:52:18;;;;;;;14.73;5.27;;;10.30;99.90;;;;;;4878753;29;20211;-74
2023/12/15 18:54:45;;;;;;;10.20;4.77;;;10.30;99.90;;;;;;4872775;29;20231;-74
2023/12/15 18:57:15;;;;;;;14.63;4.90;;;10.20;99.90;;;;;;4878310;29;20612;-74
2023/12/15 18:59:42;;;;;;;15.43;5.63;;;10.20;99.90;;;;;;4878485;29;20600;-73
2023/12/15 19:02:09;;;;;;;14.07;4.97;;;10.10;99.90;;;;;;4878107;29;20239;-73
2023/12/15 19:04:36;;;;;;;10.30;4.53;;;10.10;99.90;;;;;;4877066;29;20781;-75
2023/12/15 19:07:04;;;;;;;12.97;4.60;;;10.10;99.90;;;;;;4877740;29;20215;-74
2023/12/15 19:09:31;;;;;;;11.27;4.00;;;9.90;99.90;;;;;;4864501;29;20566;-77
2023/12/15 19:11:58;;;;;;;10.57;4.23;;;10.00;99.90;;;;;;4877547;29;20219;-77
2023/12/15 19:14:27;;;;;;;13.23;4.30;;;10.00;99.90;;;;;;4877963;29;20235;-77
2023/12/15 19:16:54;;;;;;;13.33;4.20;;;10.00;99.90;;;;;;4876651;29;20227;-76
2023/12/15 19:19:22;;;;;;;19.80;5.60;;;9.90;99.90;;;;;;4869881;29;20215;-76
2023/12/15 19:21:49;;;;;;;18.33;6.63;;;9.90;99.90;;;;;;4865908;29;20212;-76
2023/12/15 19:24:16;;;;;;;27.77;9.07;;;9.90;99.90;;;;;;4875631;29;20223;-74
2023/12/15 19:26:44;;;;;;;18.77;6.67;;;9.90;99.90;;;;;;4874003;29;20207;-75
2023/12/15 19:29:11;;;;;;;11.97;4.87;;;9.90;99.90;;;;;;4875348;29;20242;-73
2023/12/15 19:31:40;;;;;;;12.30;5.50;;;9.90;99.90;;;;;;4872705;29;20231;-74
2023/12/15 19:34:09;;;;;;;17.73;5.33;;;10.00;99.90;;;;;;4870306;29;20247;-76
2023/12/15 19:36:38;;;;;;;11.77;5.57;;;10.00;99.90;;;;;;4875007;29;20229;-76
2023/12/15 19:39:05;;;;;;;11.20;4.53;;;10.00;99.90;;;;;;4878102;29;20298;-76
2023/12/15 19:41:34;;;;;;;10.33;4.77;;;10.00;99.90;;;;;;4878175;29;20246;-76
2023/12/15 19:44:02;;;;;;;6.50;3.97;;;10.00;99.90;;;;;;4877841;29;20253;-73
2023/12/15 19:46:35;;;;;;;12.40;3.90;;;10.00;99.90;;;;;;4878129;29;20207;-73
2023/12/15 19:49:04;;;;;;;11.57;3.60;;;10.00;99.90;;;;;;4877927;29;20211;-73
2023/12/15 19:51:31;;;;;;;11.83;3.77;;;10.00;99.90;;;;;;4877491;29;20204;-74
2023/12/15 19:53:58;;;;;;;11.43;4.33;;;9.90;99.90;;;;;;4877335;29;20226;-73
2023/12/15 19:56:26;;;;;;;15.97;4.07;;;9.80;99.90;;;;;;4877845;29;20207;-73
2023/12/15 19:58:54;;;;;;;8.60;3.20;;;9.90;99.90;;;;;;4877864;29;20211;-73
2023/12/15 20:01:28;;;;;;;9.80;3.57;;;9.80;99.90;;;;;;4878109;29;20237;-74
2023/12/15 20:03:56;;;;;;;9.13;3.50;;;9.80;99.90;;;;;;4872172;29;20325;-73
2023/12/15 20:06:27;;;;;;;12.97;3.40;;;9.80;99.90;;;;;;4874364;29;20203;-74
2023/12/15 20:08:56;;;;;;;7.90;2.97;;;9.70;99.90;;;;;;4877936;29;20216;-73
2023/12/15 20:11:23;;;;;;;10.40;3.27;;;9.80;99.90;;;;;;4877824;29;20290;-74
2023/12/15 20:13:50;;;;;;;8.67;2.57;;;9.80;99.90;;;;;;4877754;29;20231;-73
2023/12/15 20:16:17;;;;;;;7.17;2.90;;;9.70;99.90;;;;;;4872394;29;20224;-77
2023/12/15 20:18:45;;;;;;;8.03;3.30;;;9.70;99.90;;;;;;4877874;29;20219;-74
2023/12/15 20:21:12;;;;;;;10.67;2.93;;;9.80;99.90;;;;;;4877958;29;20215;-77
2023/12/15 20:23:41;;;;;;;10.77;3.30;;;9.80;99.90;;;;;;4877076;29;20235;-77
2023/12/15 20:26:09;;;;;;;6.17;2.70;;;9.90;99.90;;;;;;4877313;29;20263;-76
2023/12/15 20:28:36;;;;;;;10.97;3.27;;;9.90;99.90;;;;;;4877590;29;20210;-74
2023/12/15 20:31:05;;;;;;;9.90;2.93;;;9.90;99.90;;;;;;4884159;29;20566;-76
2023/12/15 20:33:32;;;;;;;6.13;2.50;;;9.90;99.90;;;;;;4881002;29;20794;-76
2023/12/15 20:35:59;;;;;;;10.23;2.80;;;9.90;99.90;;;;;;4881023;29;20219;-77
2023/12/15 20:38:27;;;;;;;5.80;3.00;;;9.90;99.90;;;;;;4881024;29;20208;-76
2023/12/15 20:40:56;;;;;;;5.67;2.40;;;9.90;99.90;;;;;;4881350;29;20215;-76
2023/12/15 20:43:24;;;;;;;5.73;2.20;;;9.90;99.90;;;;;;4880683;29;20266;-77
2023/12/15 20:45:51;;;;;;;4.57;2.03;;;9.90;99.90;;;;;;4880858;29;20221;-73
2023/12/15 20:48:18;;;;;;;5.97;2.77;;;9.90;99.90;;;;;;4880757;29;20659;-76
2023/12/15 20:50:46;;;;;;;7.03;2.73;;;9.90;99.90;;;;;;4881062;29;20211;-75
2023/12/15 20:53:13;;;;;;;8.03;2.80;;;9.90;99.90;;;;;;4881278;29;20229;-73
2023/12/15 20:55:40;;;;;;;11.23;2.93;;;9.90;99.90;;;;;;4880717;29;20243;-76
2023/12/15 20:58:08;;;;;;;7.93;2.83;;;9.90;99.90;;;;;;4881376;29;20730;-74
2023/12/15 21:00:35;;;;;;;8.23;2.63;;;9.90;99.90;;;;;;4883416;29;20204;-73
2023/12/15 21:03:02;;;;;;;5.40;2.23;;;9.80;99.90;;;;;;4883107;29;20243;-74
2023/12/15 21:05:30;;;;;;;8.60;2.70;;;9.70;99.90;;;;;;4881425;29;20701;-73
2023/12/15 21:07:57;;;;;;;6.43;2.60;;;9.70;99.90;;;;;;4868826;29;20210;-73
2023/12/15 21:10:24;;;;;;;8.37;2.70;;;9.60;99.90;;;;;;4880475;29;20215;-73
2023/12/15 21:12:51;;;;;;;6.37;2.80;;;9.60;99.90;;;;;;4881260;29;20694;-75
2023/12/15 21:15:19;;;;;;;8.57;2.70;;;9.70;99.90;;;;;;4880450;29;20211;-73
2023/12/15 21:17:46;;;;;;;6.90;2.50;;;9.60;99.90;;;;;;4880798;29;20643;-76
2023/12/15 21:20:13;;;;;;;7.43;2.40;;;9.60;99.90;;;;;;4872699;29;20751;-77
2023/12/15 21:22:40;;;;;;;6.93;2.93;;;9.60;99.90;;;;;;4872619;29;20216;-75
2023/12/15 21:25:08;;;;;;;7.87;2.53;;;9.60;99.90;;;;;;4871984;29;20246;-75
2023/12/15 21:27:35;;;;;;;6.17;2.80;;;9.60;99.90;;;;;;4872747;29;20268;-75
2023/12/15 21:30:02;;;;;;;4.57;2.10;;;9.60;99.90;;;;;;4880205;29;20212;-76
2023/12/15 21:32:31;;;;;;;11.03;3.13;;;9.50;99.90;;;;;;4879559;29;20540;-75
2023/12/15 21:34:58;;;;;;;8.60;3.37;;;9.50;99.90;;;;;;4879624;29;20227;-76
2023/12/15 21:37:25;;;;;;;11.00;4.40;;;9.50;99.90;;;;;;4880890;29;20255;-76
2023/12/15 21:39:52;;;;;;;15.17;4.43;;;9.60;99.90;;;;;;4880933;29;20222;-75
2023/12/15 21:42:19;;;;;;;13.83;4.40;;;9.60;99.90;;;;;;4874491;29;20211;-71
